Time;durP1;ratioP1;P1;durP2;ratioP2;P2;SDS_P1;SDS_P2;PMS_P1;PMS_P2;Temp;Humidity;BMP_temperature;BMP_pressure;BME280_temperature;BME280_humidity;BME280_pressure;Samples;Min_cycle;Max_cycle;Signal;HPM_P1;HPM_P2
2022/04/25 00:01:19;;;;;;;7.30;5.57;;;;;;;8.17;57.13;99927.73;1676800;84;22060;-77
2022/04/25 00:03:45;;;;;;;9.35;6.72;;;;;;;8.15;57.16;99924.33;1674218;84;21023;-76
2022/04/25 00:06:12;;;;;;;;;;;;;;;8.13;57.26;99923.07;1679107;85;20966;-76
2022/04/25 00:08:38;;;;;;;7.92;5.37;;;;;;;8.15;58.14;99926.91;1629673;88;20184;-76
2022/04/25 00:11:05;;;;;;;7.28;6.50;;;;;;;8.14;57.44;99929.92;1665284;85;20974;-76
2022/04/25 00:13:34;;;;;;;10.55;5.10;;;;;;;8.14;57.46;99932.50;1649994;85;21316;-76
2022/04/25 00:16:00;;;;;;;7.50;6.07;;;;;;;8.12;57.64;99925.23;1673559;85;20980;-76
2022/04/25 00:18:26;;;;;;;7.87;5.60;;;;;;;8.12;57.62;99924.38;1671952;85;22196;-77
2022/04/25 00:20:52;;;;;;;7.00;6.33;;;;;;;8.10;57.61;99928.27;1669074;85;20906;-76
2022/04/25 00:23:18;;;;;;;7.07;5.70;;;;;;;8.08;57.69;99931.31;1679299;84;21171;-77
2022/04/25 00:25:44;;;;;;;8.80;5.40;;;;;;;8.09;57.75;99934.73;1642675;86;20994;-77
2022/04/25 00:28:12;;;;;;;6.08;5.15;;;;;;;8.07;57.78;99940.34;1656792;86;20928;-76
2022/04/25 00:30:38;;;;;;;8.05;5.78;;;;;;;8.06;57.91;99934.78;1656402;84;21328;-76
2022/04/25 00:33:04;;;;;;;8.73;5.80;;;;;;;8.06;57.84;99933.50;1648705;86;20968;-77
2022/04/25 00:35:39;;;;;;;8.78;6.00;;;;;;;8.06;57.93;99936.92;1648484;86;20961;-77
2022/04/25 00:38:05;;;;;;;12.47;6.33;;;;;;;8.05;58.00;99935.66;1649288;87;20909;-76
2022/04/25 00:40:31;;;;;;;7.17;5.83;;;;;;;8.01;58.17;99937.44;1622163;86;21497;-76
2022/04/25 00:43:05;;;;;;;8.13;6.15;;;;;;;7.97;58.23;99932.77;1655004;86;21089;-76
2022/04/25 00:45:33;;;;;;;6.70;5.67;;;;;;;7.96;58.37;99935.38;1645786;87;20981;-76
2022/04/25 00:47:59;;;;;;;7.40;5.40;;;;;;;7.93;58.37;99930.27;1670936;85;21058;-77
2022/04/25 00:50:25;;;;;;;8.18;5.72;;;;;;;7.92;58.42;99933.28;1664417;84;21222;-77
2022/04/25 00:52:51;;;;;;;7.10;5.40;;;;;;;7.91;58.51;99938.45;1652607;84;21086;-77
2022/04/25 00:55:17;;;;;;;5.65;5.00;;;;;;;7.86;58.50;99932.53;1655099;84;21151;-77
2022/04/25 00:57:44;;;;;;;6.30;5.27;;;;;;;7.82;58.48;99932.16;1654134;85;21008;-76
2022/04/25 01:00:13;;;;;;;8.10;5.10;;;;;;;7.80;58.54;99932.19;1628736;86;21001;-77
2022/04/25 01:02:41;;;;;;;10.15;5.80;;;;;;;7.81;58.65;99935.17;1655634;86;21111;-76
2022/04/25 01:05:09;;;;;;;6.33;5.20;;;;;;;7.80;58.65;99932.19;1649384;86;21068;-77
2022/04/25 01:07:37;;;;;;;8.35;5.15;;;;;;;7.77;58.68;99933.99;1671719;85;21037;-77
2022/04/25 01:10:07;;;;;;;7.65;5.50;;;;;;;7.76;58.77;99933.58;1650732;86;21073;-77
2022/04/25 01:12:33;;;;;;;5.53;4.97;;;;;;;7.74;58.90;99937.46;1650443;85;21554;-76
2022/04/25 01:15:10;;;;;;;5.42;4.87;;;;;;;7.73;58.99;99940.91;1654786;86;21123;-77
2022/04/25 01:17:36;;;;;;;10.55;5.17;;;;;;;7.71;58.97;99932.80;1714288;82;21045;-77
2022/04/25 01:20:04;;;;;;;7.05;5.70;;;;;;;7.71;59.05;99937.51;1711768;82;21124;-77
2022/04/25 01:22:42;;;;;;;9.13;5.83;;;;;;;7.71;59.02;99936.22;1715081;83;20959;-77
2022/04/25 01:28:02;;;;;;;6.85;5.15;;;;;;;7.69;59.13;99934.55;1718709;83;21034;-77
2022/04/25 01:30:30;;;;;;;7.25;5.92;;;;;;;7.67;59.23;99931.99;1712220;83;21137;-76
2022/04/25 01:32:55;;;;;;;7.55;5.35;;;;;;;7.64;59.27;99934.61;1688578;84;21086;-76
2022/04/25 01:35:22;;;;;;;6.57;5.33;;;;;;;7.64;59.38;99925.17;1712227;82;20919;-77
2022/04/25 01:37:48;;;;;;;8.03;5.85;;;;;;;7.64;59.39;99931.60;1740484;82;21078;-77
2022/04/25 01:40:21;;;;;;;7.53;5.75;;;;;;;7.65;59.42;99931.16;1719259;82;21097;-77
2022/04/25 01:42:47;;;;;;;6.33;5.73;;;;;;;7.64;59.48;99930.75;1700220;83;20883;-77
2022/04/25 01:45:13;;;;;;;10.20;5.53;;;;;;;7.63;59.56;99928.61;1708586;82;21664;-77
2022/04/25 01:47:40;;;;;;;6.60;5.73;;;;;;;7.64;59.54;99930.31;1717300;82;20954;-77
2022/04/25 01:50:08;;;;;;;7.47;6.12;;;;;;;7.64;59.56;99932.04;1714197;82;20986;-77
2022/04/25 01:52:49;;;;;;;8.83;5.47;;;;;;;7.59;59.71;99930.81;1719262;82;20924;-77
2022/04/25 01:55:15;;;;;;;8.45;5.72;;;;;;;7.54;59.71;99933.89;1690927;83;20935;-76
2022/04/25 01:57:41;;;;;;;8.17;6.13;;;;;;;7.54;59.72;99927.90;1715743;82;21617;-77
2022/04/25 02:00:08;;;;;;;8.80;6.07;;;;;;;7.51;59.78;99932.66;1713867;82;20876;-76
2022/04/25 02:02:35;;;;;;;10.00;6.08;;;;;;;7.50;59.85;99937.81;1719137;82;20931;-77
2022/04/25 02:05:03;;;;;;;10.10;6.08;;;;;;;7.47;59.91;99932.28;1707576;83;21444;-76
2022/04/25 02:07:31;;;;;;;8.50;6.40;;;;;;;7.45;59.90;99937.88;1708570;82;20938;-77
2022/04/25 02:09:57;;;;;;;8.00;6.20;;;;;;;7.43;60.02;99940.91;1706989;83;20934;-77
2022/04/25 02:12:23;;;;;;;10.47;6.80;;;;;;;7.40;60.07;99946.53;1696479;84;22098;-76
2022/04/25 02:14:49;;;;;;;9.08;6.72;;;;;;;7.38;60.24;99945.70;1704033;83;21417;-77
2022/04/25 02:17:15;;;;;;;7.50;6.00;;;;;;;7.35;60.21;99946.59;1657813;84;20909;-76
2022/04/25 02:19:44;;;;;;;7.37;6.10;;;;;;;7.33;60.36;99946.20;1655928;84;21511;-77
2022/04/25 02:22:11;;;;;;;10.68;6.05;;;;;;;7.31;60.31;99941.08;1656191;86;20988;-77
2022/04/25 02:24:39;;;;;;;8.00;6.28;;;;;;;7.30;60.37;99941.95;1655992;84;21008;-77
2022/04/25 02:27:06;;;;;;;8.05;5.72;;;;;;;7.30;60.39;99943.23;1632687;86;21016;-77
2022/04/25 02:29:36;;;;;;;10.10;6.90;;;;;;;7.30;60.38;99947.94;1655393;86;21078;-77
2022/04/25 02:32:03;;;;;;;6.03;5.42;;;;;;;7.29;60.45;99947.96;1663509;84;21000;-77
2022/04/25 02:34:31;;;;;;;6.78;5.78;;;;;;;7.25;60.56;99951.48;1669129;84;25251;-76
2022/04/25 02:36:57;;;;;;;11.75;6.30;;;;;;;7.26;60.73;99950.61;1655753;86;21076;-77
2022/04/25 02:39:24;;;;;;;;;;;;;;;7.25;60.85;99946.34;1658412;84;21012;-77
2022/04/25 02:41:50;;;;;;;6.25;5.15;;;;;;;7.25;61.12;99948.91;1651804;84;20137;-77
2022/04/25 02:44:18;;;;;;;8.25;5.85;;;;;;;7.22;60.82;99947.22;1633094;86;21585;-77
2022/04/25 02:46:44;;;;;;;6.90;5.70;;;;;;;7.21;60.95;99948.09;1644899;84;20948;-77
2022/04/25 02:49:10;;;;;;;9.13;6.90;;;;;;;7.21;60.82;99951.10;1655793;86;21000;-77
2022/04/25 02:51:36;;;;;;;6.33;5.60;;;;;;;7.18;60.90;99949.42;1655312;86;21614;-77
2022/04/25 02:54:03;;;;;;;9.80;7.00;;;;;;;7.18;60.92;99947.28;1686605;83;21814;-76
2022/04/25 02:56:29;;;;;;;7.80;6.40;;;;;;;7.18;60.97;99945.56;1689045;83;20954;-76
2022/04/25 02:58:55;;;;;;;9.17;6.10;;;;;;;7.17;61.11;99948.16;1683685;85;21033;-77
2022/04/25 03:01:21;;;;;;;6.75;6.00;;;;;;;7.17;61.16;99946.44;1683562;84;21537;-77
2022/04/25 03:03:47;;;;;;;8.97;6.23;;;;;;;7.18;61.16;99945.56;1655445;83;21691;-76
2022/04/25 03:06:13;;;;;;;5.93;5.30;;;;;;;7.15;61.22;99946.03;1680372;84;22581;-76
2022/04/25 03:08:40;;;;;;;7.95;6.28;;;;;;;7.12;61.39;99952.06;1646796;85;21057;-77
2022/04/25 03:11:09;;;;;;;11.15;5.85;;;;;;;7.14;61.26;99952.05;1650832;86;21396;-77
2022/04/25 03:13:36;;;;;;;6.85;5.90;;;;;;;7.14;61.42;99949.48;1662764;86;21438;-77
2022/04/25 03:16:04;;;;;;;9.93;6.50;;;;;;;7.13;61.38;99948.63;1667822;84;21390;-77
2022/04/25 03:18:31;;;;;;;10.18;6.62;;;;;;;7.13;61.40;99950.34;1741124;82;21437;-76
2022/04/25 03:20:57;;;;;;;;;;;;;;;7.10;61.48;99948.66;1720158;82;20927;-76
2022/04/25 03:23:23;;;;;;;;;;;;;;;7.09;62.07;99949.97;1734711;82;20104;-77
2022/04/25 03:25:50;;;;;;;9.28;5.40;;;;;;;7.09;62.13;99947.39;1716903;82;20531;-77
2022/04/25 03:28:18;;;;;;;9.70;6.67;;;;;;;7.08;61.63;99950.41;1719368;83;20919;-76
2022/04/25 03:30:46;;;;;;;9.88;6.25;;;;;;;7.07;61.74;99943.99;1719344;83;21445;-77
2022/04/25 03:33:13;;;;;;;6.70;6.08;;;;;;;7.06;61.70;99954.71;1717615;82;21413;-77
2022/04/25 03:35:40;;;;;;;12.23;6.22;;;;;;;7.07;61.73;99949.14;1714850;82;20883;-77
2022/04/25 03:38:09;;;;;;;11.70;6.60;;;;;;;7.07;62.16;99950.42;1724534;82;21392;-77
2022/04/25 03:40:36;;;;;;;13.48;5.78;;;;;;;7.05;61.88;99953.02;1717022;83;21374;-77
2022/04/25 03:43:06;;;;;;;7.40;6.35;;;;;;;7.04;61.83;99947.45;1708329;82;21769;-76
2022/04/25 03:45:32;;;;;;;9.03;5.95;;;;;;;7.04;61.95;99953.88;1703825;83;21376;-77
2022/04/25 03:48:02;;;;;;;8.20;6.08;;;;;;;7.07;61.96;99956.84;1722301;82;131344;-76
2022/04/25 03:50:31;;;;;;;;;;;;;;;7.07;61.93;99955.56;1711693;83;21433;-77
2022/04/25 03:52:57;;;;;;;8.50;4.92;;;;;;;7.04;62.51;99959.02;1711502;82;20101;-77
2022/04/25 03:58:07;;;;;;;7.65;6.50;;;;;;;7.04;62.10;99964.59;1713534;82;21521;-77
2022/04/25 04:00:35;;;;;;;10.13;7.00;;;;;;;7.06;62.28;99966.28;1709437;82;20976;-77
2022/04/25 04:03:01;;;;;;;8.15;6.00;;;;;;;7.06;62.34;99970.57;1709738;82;21475;-77
2022/04/25 04:05:29;;;;;;;6.07;5.33;;;;;;;7.05;62.21;99970.16;1715994;82;21506;-76
2022/04/25 04:07:55;;;;;;;8.93;5.62;;;;;;;7.05;62.33;99974.01;1693016;83;20944;-77
2022/04/25 04:10:22;;;;;;;7.55;5.42;;;;;;;7.07;62.35;99976.98;1684986;83;21650;-77
2022/04/25 04:12:49;;;;;;;8.20;5.70;;;;;;;7.08;62.30;99972.25;1699091;83;21425;-79
2022/04/25 04:15:17;;;;;;;7.42;5.87;;;;;;;7.08;62.32;99977.39;1703974;83;21544;-80
2022/04/25 04:17:44;;;;;;;7.03;5.05;;;;;;;7.09;62.47;99980.81;1686623;83;20975;-80
2022/04/25 04:20:14;;;;;;;11.00;6.72;;;;;;;7.10;62.45;99978.66;1709130;83;21059;-79
2022/04/25 04:22:41;;;;;;;8.13;5.08;;;;;;;7.10;62.56;99979.52;1681277;84;21500;-78
2022/04/25 04:25:14;;;;;;;10.10;5.80;;;;;;;7.11;62.59;99979.93;1698047;83;21370;-80
2022/04/25 04:27:41;;;;;;;7.17;5.80;;;;;;;7.14;62.70;99992.75;1707681;83;20945;-79
2022/04/25 04:30:12;;;;;;;6.42;5.17;;;;;;;7.18;62.58;99993.56;1695253;83;21095;-78
2022/04/25 04:32:44;;;;;;;;;;;;;;;7.23;62.70;99995.64;1682213;83;20944;-79
2022/04/25 04:35:15;;;;;;;9.05;4.95;;;;;;;7.28;63.16;99992.11;1685258;83;20686;-78
2022/04/25 04:37:42;;;;;;;6.00;4.95;;;;;;;7.32;62.71;99999.36;1689203;83;20921;-78
2022/04/25 04:40:28;;;;;;;5.20;4.30;;;;;;;7.35;62.72;100006.18;1688989;84;21423;-78
2022/04/25 04:42:54;;;;;;;7.45;5.42;;;;;;;7.35;62.75;100008.75;1683967;84;21304;-78
2022/04/25 04:45:29;;;;;;;5.65;4.60;;;;;;;7.39;62.81;100009.98;1691496;83;21084;-78
2022/04/25 04:47:56;;;;;;;6.37;4.78;;;;;;;7.44;63.01;100015.07;1678818;83;21543;-79
2022/04/25 04:50:23;;;;;;;10.50;4.67;;;;;;;7.47;62.92;100021.46;1606813;86;21055;-74
2022/04/25 04:52:59;;;;;;;6.78;4.87;;;;;;;7.46;62.87;100017.19;1671688;84;21105;-79
2022/04/25 04:55:26;;;;;;;7.05;4.45;;;;;;;7.49;62.95;100018.00;1635238;86;21069;-78
2022/04/25 04:57:53;;;;;;;;;;;;;;;7.52;62.98;100024.83;1644317;86;21088;-79
2022/04/25 05:00:19;;;;;;;5.08;4.50;;;;;;;7.52;63.27;100024.39;1650421;84;20243;-78
2022/04/25 05:02:45;;;;;;;6.37;4.15;;;;;;;7.53;62.95;100026.53;1659087;84;21068;-79
2022/04/25 05:05:13;;;;;;;5.90;4.60;;;;;;;7.58;63.14;100032.03;1655204;86;20989;-79
2022/04/25 05:07:39;;;;;;;6.25;4.45;;;;;;;7.59;63.10;100034.17;1630297;84;21561;-80
2022/04/25 05:10:06;;;;;;;6.85;4.95;;;;;;;7.63;63.12;100035.39;1654908;84;21091;-79
2022/04/25 05:12:52;;;;;;;6.35;4.25;;;;;;;7.69;63.21;100040.05;1667520;84;21038;-79
2022/04/25 05:15:19;;;;;;;6.78;4.62;;;;;;;7.73;63.17;100037.41;1643159;85;20953;-78
2022/04/25 05:17:56;;;;;;;5.15;4.05;;;;;;;7.77;63.17;100041.64;1657035;85;20950;-78
2022/04/25 05:20:23;;;;;;;9.33;4.40;;;;;;;7.79;63.23;100040.34;1661043;84;21029;-79
2022/04/25 05:22:50;;;;;;;6.37;4.12;;;;;;;7.82;63.24;100044.13;1666237;85;20926;-78
2022/04/25 05:25:22;;;;;;;7.65;4.92;;;;;;;7.88;63.26;100045.33;1672707;84;20950;-78
2022/04/25 05:27:51;;;;;;;6.87;4.87;;;;;;;7.89;63.22;100052.17;1654616;84;20941;-78
2022/04/25 05:30:19;;;;;;;17.37;4.28;;;;;;;7.88;63.28;100042.31;1641935;84;20925;-78
2022/04/25 05:32:48;;;;;;;7.37;4.90;;;;;;;7.96;63.39;100046.06;1650529;85;20990;-78
2022/04/25 05:35:16;;;;;;;6.83;3.87;;;;;;;8.05;63.43;100050.23;1674276;84;20989;-78
2022/04/25 05:37:44;;;;;;;5.83;4.20;;;;;;;8.10;63.42;100048.44;1653974;84;20960;-79
2022/04/25 05:40:12;;;;;;;6.60;4.05;;;;;;;8.15;63.43;100053.94;1639765;84;21000;-78
2022/04/25 05:42:45;;;;;;;6.55;4.37;;;;;;;8.21;63.42;100051.70;1648969;84;21055;-80
2022/04/25 05:45:14;;;;;;;5.37;4.55;;;;;;;8.27;63.48;100055.04;1653617;84;21044;-79
2022/04/25 05:47:43;;;;;;;5.00;4.05;;;;;;;8.34;63.50;100060.95;1656487;85;21072;-78
2022/04/25 05:52:57;;;;;;;5.45;3.52;;;;;;;8.43;63.44;100059.52;1593816;88;21006;-80
2022/04/25 05:55:31;;;;;;;4.83;4.33;;;;;;;8.43;63.44;100056.09;1675651;84;21059;-79
2022/04/25 05:57:58;;;;;;;4.03;3.62;;;;;;;8.41;63.46;100065.13;1658238;84;21000;-78
2022/04/25 06:00:26;;;;;;;10.15;4.12;;;;;;;8.42;63.53;100059.10;1665765;84;21071;-79
2022/04/25 06:02:52;;;;;;;6.85;3.62;;;;;;;8.44;63.53;100062.94;1658853;84;21150;-79
2022/04/25 06:05:25;;;;;;;5.17;3.70;;;;;;;8.42;63.47;100071.13;1672185;84;21103;-79
2022/04/25 06:07:51;;;;;;;5.80;3.67;;;;;;;8.41;63.46;100066.42;1658623;82;21071;-79
2022/04/25 06:10:20;;;;;;;4.72;3.45;;;;;;;8.43;63.62;100073.69;1695825;83;21082;-80
2022/04/25 06:12:49;;;;;;;4.58;3.17;;;;;;;8.38;63.65;100074.63;1695939;83;21124;-79
2022/04/25 06:15:17;;;;;;;4.60;4.05;;;;;;;8.36;63.57;100073.80;1681372;83;21448;-79
2022/04/25 06:17:44;;;;;;;7.53;3.42;;;;;;;8.38;63.58;100077.20;1694668;83;21083;-79
2022/04/25 06:20:11;;;;;;;4.10;3.70;;;;;;;8.37;63.56;100077.64;1691557;83;21765;-78
2022/04/25 06:22:38;;;;;;;6.87;3.85;;;;;;;8.34;63.60;100080.70;1687064;83;21111;-78
2022/04/25 06:25:07;;;;;;;5.65;3.77;;;;;;;8.29;63.59;100080.77;1696947;83;20975;-79
2022/04/25 06:27:33;;;;;;;4.90;4.28;;;;;;;8.31;63.64;100085.47;1679105;83;21075;-78
2022/04/25 06:29:59;;;;;;;5.73;3.63;;;;;;;8.34;63.79;100085.42;1658125;83;22108;-79
2022/04/25 06:32:27;;;;;;;7.60;4.37;;;;;;;8.34;63.65;100080.27;1653397;83;21041;-78
2022/04/25 06:34:53;;;;;;;5.72;3.92;;;;;;;8.34;63.70;100082.84;1656133;85;21146;-78
2022/04/25 06:37:19;;;;;;;4.47;3.47;;;;;;;8.35;63.69;100087.13;1670332;84;21063;-79
2022/04/25 06:39:45;;;;;;;5.87;3.47;;;;;;;8.35;63.69;100085.84;1650990;84;22375;-78
2022/04/25 06:42:11;;;;;;;7.63;4.20;;;;;;;8.36;63.73;100086.25;1684102;83;20948;-79
2022/04/25 06:44:38;;;;;;;7.57;4.13;;;;;;;8.35;63.79;100086.27;1683152;83;20986;-78
2022/04/25 06:47:04;;;;;;;;;;;;;;;8.34;63.78;100094.87;1671865;84;21047;-79
2022/04/25 06:49:31;;;;;;;5.65;3.60;;;;;;;8.33;64.00;100091.88;1690885;83;20201;-79
2022/04/25 06:52:01;;;;;;;5.78;3.87;;;;;;;8.33;63.83;100097.89;1694269;83;20932;-80
2022/04/25 06:54:29;;;;;;;4.67;3.25;;;;;;;8.35;63.85;100096.14;1680940;83;20916;-79
2022/04/25 06:56:58;;;;;;;6.12;3.65;;;;;;;8.39;63.86;100092.64;1690620;83;20928;-79
2022/04/25 06:59:24;;;;;;;4.97;3.98;;;;;;;8.42;63.83;100097.75;1687876;83;20928;-78
2022/04/25 07:01:52;;;;;;;6.12;4.05;;;;;;;8.48;63.86;100100.23;1686374;83;20877;-78
2022/04/25 07:04:19;;;;;;;4.83;3.77;;;;;;;8.51;63.87;100102.76;1686677;83;21355;-79
2022/04/25 07:06:47;;;;;;;4.53;3.62;;;;;;;8.56;63.89;100101.40;1679784;83;21235;-79
2022/04/25 07:09:13;;;;;;;7.30;4.25;;;;;;;8.57;63.85;100106.53;1685800;83;20952;-79
2022/04/25 07:11:46;;;;;;;6.75;3.92;;;;;;;8.59;63.94;100102.20;1687797;83;20980;-79
2022/04/25 07:14:15;;;;;;;;;;;;;;;8.65;63.98;100096.53;1686042;83;20972;-78
2022/04/25 07:16:48;;;;;;;4.90;3.50;;;;;;;8.70;64.07;100100.73;1684391;83;20183;-78
2022/04/25 07:19:17;;;;;;;5.40;3.70;;;;;;;8.75;63.97;100102.80;1694081;83;21029;-79
2022/04/25 07:29:57;;;;;;;5.28;4.12;;;;;;;8.96;63.93;100102.84;1693640;83;21081;-79
2022/04/25 07:32:24;;;;;;;5.83;4.03;;;;;;;8.99;63.98;100103.23;1684016;83;21117;-79
2022/04/25 07:34:50;;;;;;;5.58;4.10;;;;;;;9.04;63.97;100107.43;1708319;83;21358;-79
2022/04/25 07:37:30;;;;;;;4.05;3.65;;;;;;;9.06;63.98;100107.41;1687766;83;21104;-79
2022/04/25 07:39:56;;;;;;;4.87;3.50;;;;;;;9.12;64.00;100110.72;1685188;83;21055;-79
2022/04/25 07:42:22;;;;;;;4.83;3.90;;;;;;;9.19;64.00;100102.44;1684449;83;20983;-79
2022/04/25 07:44:48;;;;;;;7.23;4.47;;;;;;;9.28;64.00;100108.72;1697469;83;20988;-79
2022/04/25 07:47:14;;;;;;;4.57;3.60;;;;;;;9.38;64.04;100114.08;1704951;83;21064;-79
2022/04/25 07:49:43;;;;;;;5.85;3.62;;;;;;;9.43;64.06;100109.68;1694187;83;21099;-79
2022/04/25 07:52:09;;;;;;;7.57;3.47;;;;;;;9.47;64.00;100119.06;1696448;83;21811;-79
2022/04/25 07:54:35;;;;;;;5.08;3.72;;;;;;;9.54;64.02;100116.78;1688935;83;21311;-79
2022/04/25 07:59:43;;;;;;;6.12;3.95;;;;;;;9.77;64.02;100112.89;1806492;78;22355;-79
2022/04/25 08:02:20;;;;;;;5.62;4.10;;;;;;;9.77;63.98;100115.47;1772746;79;20977;-79
2022/04/25 08:04:46;;;;;;;5.42;4.30;;;;;;;9.81;63.97;100114.08;1760133;78;21276;-79
2022/04/25 08:07:13;;;;;;;3.83;3.30;;;;;;;9.83;63.93;100120.06;1770820;78;21566;-80
2022/04/25 08:09:42;;;;;;;7.67;4.12;;;;;;;9.90;64.05;100114.30;1759146;78;20948;-80
2022/04/25 08:17:59;;;;;;;5.40;3.95;;;;;;;9.87;63.85;100132.03;1768245;78;21113;-79
2022/04/25 08:20:25;;;;;;;5.53;3.87;;;;;;;9.85;63.84;100136.38;1756102;79;21064;-79
2022/04/25 08:22:51;;;;;;;4.22;3.20;;;;;;;9.82;63.85;100130.42;1764190;80;26626;-79
2022/04/25 08:25:18;;;;;;;4.40;3.23;;;;;;;9.81;63.84;100139.05;1761038;79;21678;-79
2022/04/25 08:27:44;;;;;;;5.40;3.92;;;;;;;9.77;63.81;100143.43;1772408;79;21029;-79
2022/04/25 08:30:12;;;;;;;4.65;3.58;;;;;;;9.75;63.82;100145.19;1755867;80;21419;-79
2022/04/25 08:32:38;;;;;;;4.65;3.58;;;;;;;9.75;63.82;100141.31;1745975;79;20937;-80
2022/04/25 08:35:05;;;;;;;4.97;3.58;;;;;;;9.75;63.80;100150.36;1758022;79;20879;-80
2022/04/25 08:37:31;;;;;;;4.60;3.35;;;;;;;9.74;63.75;100142.20;1732281;82;20909;-80
2022/04/25 08:39:57;;;;;;;6.45;3.55;;;;;;;9.75;63.82;100154.23;1722301;82;20922;-79
2022/04/25 08:42:23;;;;;;;6.25;3.47;;;;;;;9.79;63.79;100157.16;1716813;82;20983;-79
2022/04/25 08:44:53;;;;;;;6.55;3.22;;;;;;;9.80;63.73;100158.86;1714501;81;20899;-79
2022/04/25 08:47:22;;;;;;;4.55;3.45;;;;;;;9.82;63.79;100155.80;1718678;81;20908;-79
2022/04/25 08:49:48;;;;;;;7.10;3.40;;;;;;;9.94;63.85;100154.23;1734420;80;20878;-79
2022/04/25 08:52:14;;;;;;;5.50;3.43;;;;;;;10.13;63.89;100154.70;1766538;79;20909;-79
2022/04/25 08:54:42;;;;;;;6.05;3.80;;;;;;;10.35;63.89;100153.83;1753915;79;20897;-79
2022/04/25 08:57:09;;;;;;;4.08;3.45;;;;;;;10.51;63.78;100153.00;1729253;81;20970;-79
2022/04/25 08:59:37;;;;;;;5.92;3.62;;;;;;;10.64;63.73;100155.72;1746914;79;20882;-79
2022/04/25 09:02:03;;;;;;;4.70;3.47;;;;;;;10.78;63.76;100156.68;1755738;79;21034;-79
2022/04/25 09:04:29;;;;;;;4.17;3.22;;;;;;;10.89;63.66;100157.27;1737072;79;21072;-79
2022/04/25 09:06:58;;;;;;;4.25;3.10;;;;;;;10.95;63.67;100163.11;1744983;79;21112;-79
2022/04/25 09:09:25;;;;;;;4.30;3.08;;;;;;;11.01;63.60;100155.64;1747727;79;20989;-79
2022/04/25 09:12:09;;;;;;;3.75;3.20;;;;;;;11.06;63.48;100164.14;1742732;79;21017;-79
2022/04/25 09:14:42;;;;;;;3.83;3.02;;;;;;;11.07;63.47;100161.96;1750303;79;21046;-79
2022/04/25 09:17:09;;;;;;;6.60;3.58;;;;;;;11.04;63.32;100156.02;1746650;79;21033;-79
2022/04/25 09:19:36;;;;;;;;;;;;;;;11.04;63.43;100167.21;1748227;79;21038;-79
2022/04/25 09:22:04;;;;;;;6.83;3.47;;;;;;;11.03;63.23;100165.95;1751090;79;20175;-79
2022/04/25 09:24:35;;;;;;;6.40;3.30;;;;;;;11.05;63.41;100169.36;1766301;79;20939;-79
2022/04/25 09:27:23;;;;;;;4.03;3.15;;;;;;;11.13;63.45;100163.09;1761677;79;20954;-80
2022/04/25 09:29:48;;;;;;;3.33;2.80;;;;;;;11.24;63.44;100168.00;1764948;79;20930;-80
2022/04/25 09:32:17;;;;;;;4.83;3.43;;;;;;;11.37;63.36;100171.97;1737877;79;20895;-80
2022/04/25 09:35:03;;;;;;;4.08;3.08;;;;;;;11.49;63.29;100174.66;1767387;79;20886;-79
2022/04/25 09:37:46;;;;;;;3.67;2.47;;;;;;;11.53;63.09;100171.94;1755155;79;20957;-79
2022/04/25 09:40:16;;;;;;;5.67;3.30;;;;;;;11.59;63.09;100177.41;1741624;79;20906;-80
2022/04/25 09:42:42;;;;;;;7.45;3.30;;;;;;;11.74;63.24;100174.84;1776532;79;20931;-80
2022/04/25 09:45:08;;;;;;;4.10;3.65;;;;;;;11.88;62.99;100177.48;1758692;79;21428;-80
2022/04/25 09:47:37;;;;;;;6.43;4.30;;;;;;;11.83;62.83;100181.94;1740251;79;20931;-80
2022/04/25 09:50:15;;;;;;;4.78;3.60;;;;;;;11.78;62.82;100182.52;1748419;79;20856;-80
2022/04/25 09:53:00;;;;;;;5.80;3.75;;;;;;;11.66;62.75;100177.64;1762915;79;20986;-80
2022/04/25 09:55:30;;;;;;;4.40;2.80;;;;;;;11.58;62.74;100177.84;1743970;79;20878;-80
2022/04/25 09:57:57;;;;;;;5.62;2.75;;;;;;;11.59;62.82;100186.47;1754461;79;20969;-80
2022/04/25 10:00:38;;;;;;;8.83;3.10;;;;;;;11.65;62.84;100181.12;1755195;79;21334;-80
2022/04/25 10:03:08;;;;;;;4.33;2.65;;;;;;;11.69;62.67;100190.51;1748433;79;20914;-80
2022/04/25 10:05:46;;;;;;;5.87;3.10;;;;;;;11.60;62.56;100183.83;1744338;79;20950;-80
2022/04/25 10:08:16;;;;;;;4.67;2.52;;;;;;;11.52;62.46;100196.13;1739550;79;20926;-80
2022/04/25 10:10:53;;;;;;;3.80;2.47;;;;;;;11.48;62.43;100194.52;1763639;79;20921;-80
2022/04/25 10:13:20;;;;;;;3.47;2.60;;;;;;;11.46;62.42;100188.53;1744020;79;20899;-81
2022/04/25 10:15:47;;;;;;;4.90;2.62;;;;;;;11.55;62.34;100184.84;1757114;79;21574;-81
2022/04/25 10:18:16;;;;;;;3.83;2.87;;;;;;;11.68;62.35;100186.66;1758110;79;20906;-80
2022/04/25 10:20:44;;;;;;;3.47;2.63;;;;;;;11.80;62.25;100185.91;1756966;79;20867;-80
2022/04/25 10:23:14;;;;;;;2.30;2.10;;;;;;;11.98;62.39;100181.92;1757905;79;21278;-80
2022/04/25 10:25:53;;;;;;;4.33;2.70;;;;;;;12.21;62.25;100176.08;1745592;79;20938;-80
2022/04/25 10:28:43;;;;;;;4.17;2.42;;;;;;;12.37;62.09;100180.36;1753405;79;20902;-80
2022/04/25 10:31:20;;;;;;;3.98;2.40;;;;;;;12.38;61.87;100178.17;1761236;79;20887;-80
2022/04/25 10:33:52;;;;;;;4.75;2.25;;;;;;;12.28;61.82;100191.01;1760344;79;20914;-80
2022/04/25 10:36:42;;;;;;;3.95;3.27;;;;;;;12.14;61.70;100191.41;1741330;79;20901;-80
2022/04/25 10:39:27;;;;;;;2.83;2.35;;;;;;;12.08;61.43;100190.29;1744309;79;20930;-80
2022/04/25 10:45:00;;;;;;;4.00;2.55;;;;;;;12.07;61.67;100195.07;1744529;80;21331;-80
2022/04/25 10:47:28;;;;;;;3.05;2.60;;;;;;;12.09;61.65;100186.80;1757629;79;20973;-81
2022/04/25 10:50:03;;;;;;;2.77;2.33;;;;;;;12.02;61.37;100187.42;1767759;79;20934;-80
2022/04/25 10:55:42;;;;;;;3.65;2.60;;;;;;;12.02;61.38;100199.09;1753400;79;21276;-80
2022/04/25 10:58:09;;;;;;;4.97;2.87;;;;;;;12.03;61.43;100195.60;1764279;79;20887;-80
2022/04/25 11:00:46;;;;;;;2.62;2.40;;;;;;;12.04;61.32;100192.56;1758300;79;20942;-79
2022/04/25 11:03:23;;;;;;;3.22;2.80;;;;;;;12.10;61.33;100187.20;1751348;79;20914;-79
2022/04/25 11:06:05;;;;;;;4.30;2.70;;;;;;;12.19;61.31;100190.83;1738114;79;27453;-79
2022/04/25 11:08:35;;;;;;;4.03;2.22;;;;;;;12.24;60.98;100194.98;1752671;79;20922;-79
2022/04/25 11:11:09;;;;;;;3.42;2.87;;;;;;;12.26;61.02;100201.42;1777841;79;21833;-80
2022/04/25 11:13:55;;;;;;;4.03;2.67;;;;;;;12.37;61.08;100199.81;1754509;79;20915;-80
2022/04/25 11:16:24;;;;;;;4.28;2.77;;;;;;;12.51;61.02;100203.66;1742109;79;21398;-80
2022/04/25 11:19:17;;;;;;;3.27;2.98;;;;;;;12.65;60.93;100211.02;1743242;80;21500;-80
2022/04/25 11:21:49;;;;;;;4.42;3.17;;;;;;;12.69;60.83;100213.91;1754456;79;20921;-80
2022/04/25 11:24:42;;;;;;;3.70;2.85;;;;;;;12.69;60.55;100223.45;1750037;79;20953;-80
2022/04/25 11:27:12;;;;;;;4.58;3.92;;;;;;;12.62;60.62;100224.08;1738700;79;21028;-79
2022/04/25 11:29:47;;;;;;;4.55;3.45;;;;;;;12.54;60.55;100233.83;1749724;79;21632;-80
2022/04/25 11:32:30;;;;;;;16.82;10.10;;;;;;;12.46;60.54;100234.09;1750253;79;21337;-80
2022/04/25 11:35:00;;;;;;;4.87;3.58;;;;;;;12.45;60.54;100239.33;1762934;79;21540;-81
2022/04/25 11:37:29;;;;;;;5.30;3.58;;;;;;;12.39;60.37;100240.35;1751915;79;21478;-80
2022/04/25 11:40:00;;;;;;;5.10;4.58;;;;;;;12.31;60.29;100251.84;1757590;79;21776;-79
2022/04/25 11:42:29;;;;;;;5.00;3.20;;;;;;;12.22;60.06;100255.09;1749892;79;21422;-79
2022/04/25 11:45:00;;;;;;;5.15;3.40;;;;;;;12.07;60.07;100247.75;1747349;79;21517;-80
2022/04/25 11:50:00;;;;;;;5.95;3.67;;;;;;;11.92;60.09;100259.86;1782080;77;22733;-79
2022/04/25 11:52:26;;;;;;;3.92;3.47;;;;;;;11.92;60.20;100270.23;1742424;80;20976;-79
2022/04/25 11:54:54;;;;;;;5.12;3.95;;;;;;;11.95;60.00;100267.55;1738993;80;21000;-79
2022/04/25 12:00:17;;;;;;;6.40;3.55;;;;;;;12.01;59.95;100271.24;1688627;80;21081;-79
2022/04/25 12:02:45;;;;;;;8.75;4.08;;;;;;;12.02;59.89;100278.13;1674615;83;21534;-79
2022/04/25 12:05:12;;;;;;;10.98;5.78;;;;;;;12.05;59.88;100278.48;1643400;85;20887;-79
2022/04/25 12:15:58;;;;;;;11.38;8.10;;;;;;;12.18;59.86;100277.26;1660051;84;20942;-82
2022/04/25 12:18:30;;;;;;;6.55;4.25;;;;;;;12.29;59.87;100296.41;1647727;85;21414;-82
2022/04/25 12:21:13;;;;;;;8.35;4.28;;;;;;;12.31;59.66;100284.25;1645738;85;20970;-82
2022/04/25 12:23:50;;;;;;;5.17;3.85;;;;;;;12.34;59.66;100296.67;1649158;85;20934;-82
2022/04/25 12:26:26;;;;;;;6.35;4.42;;;;;;;12.36;59.70;100297.93;1684172;83;20953;-82
2022/04/25 12:29:00;;;;;;;4.78;4.22;;;;;;;12.41;59.62;100300.80;1644243;85;21577;-83
2022/04/25 12:31:32;;;;;;;6.33;4.35;;;;;;;12.39;59.45;100301.29;1644814;85;20879;-83